createdAt,value
2022-11-29T00:00:40.959Z,10.08
2022-11-29T00:03:09.704Z,10.05
2022-11-29T00:05:36.095Z,10.01
2022-11-29T00:08:02.438Z,9.99
2022-11-29T00:10:28.813Z,10.02
2022-11-29T00:12:55.366Z,10.09
2022-11-29T00:15:21.908Z,10.11
2022-11-29T00:17:48.273Z,10.13
2022-11-29T00:20:14.666Z,10.12
2022-11-29T00:22:40.977Z,10.16
2022-11-29T00:25:07.354Z,10.11
2022-11-29T00:27:33.871Z,10.14
2022-11-29T00:30:00.261Z,10.15
2022-11-29T00:32:26.626Z,10.17
2022-11-29T00:34:53.032Z,10.13
2022-11-29T00:37:19.635Z,10.14
2022-11-29T00:39:46.018Z,10.15
2022-11-29T00:42:12.404Z,10.16
2022-11-29T00:44:38.822Z,10.16
2022-11-29T00:47:05.405Z,10.18
2022-11-29T00:49:31.835Z,10.15
2022-11-29T00:51:58.168Z,10.15
2022-11-29T00:54:24.532Z,10.13
2022-11-29T00:56:50.970Z,10.15
2022-11-29T00:59:17.475Z,10.15
2022-11-29T01:01:43.929Z,10.15
2022-11-29T01:04:10.302Z,10.13
2022-11-29T01:06:36.679Z,9.98
2022-11-29T01:09:03.001Z,10.03
2022-11-29T01:11:29.469Z,10.03
2022-11-29T01:13:55.859Z,10.06
2022-11-29T01:16:22.291Z,9.99
2022-11-29T01:18:48.661Z,10.07
2022-11-29T01:21:15.080Z,10.11
2022-11-29T01:23:41.470Z,10.08
2022-11-29T01:26:07.891Z,10.11
2022-11-29T01:28:34.400Z,10.13
2022-11-29T01:31:00.809Z,10.14
2022-11-29T01:33:27.222Z,10.15
2022-11-29T01:35:53.686Z,10.12
2022-11-29T01:38:20.039Z,10.12
2022-11-29T01:40:46.490Z,10.14
2022-11-29T01:43:13.841Z,10.15
2022-11-29T01:45:40.315Z,10.15
2022-11-29T01:48:06.728Z,10.13
2022-11-29T01:50:33.346Z,10.14
2022-11-29T01:52:59.705Z,10.13
2022-11-29T01:55:26.019Z,10.12
2022-11-29T01:57:52.717Z,10.11
2022-11-29T02:00:19.164Z,10.13
2022-11-29T02:02:45.574Z,10.14
2022-11-29T02:05:11.965Z,10.12
2022-11-29T02:07:38.454Z,10.02
2022-11-29T02:10:05.003Z,10.05
2022-11-29T02:12:31.349Z,10.08
2022-11-29T02:14:57.877Z,10.05
2022-11-29T02:17:27.022Z,10.02
2022-11-29T02:19:53.363Z,10.00
2022-11-29T02:22:19.715Z,9.99
2022-11-29T02:24:46.295Z,9.94
2022-11-29T02:27:12.829Z,9.99
2022-11-29T02:29:39.257Z,10.01
2022-11-29T02:32:05.589Z,10.02
2022-11-29T02:34:31.921Z,10.00
2022-11-29T02:36:58.295Z,10.00
2022-11-29T02:39:26.926Z,9.98
2022-11-29T02:41:53.306Z,9.97
2022-11-29T02:44:19.686Z,9.94
2022-11-29T02:46:46.146Z,9.94
2022-11-29T02:49:12.475Z,9.94
2022-11-29T02:51:41.303Z,9.95
2022-11-29T02:54:07.866Z,9.95
2022-11-29T02:56:34.250Z,9.95
2022-11-29T02:59:03.664Z,9.93
2022-11-29T03:01:30.354Z,9.93
2022-11-29T03:03:56.788Z,9.95
2022-11-29T03:06:23.197Z,9.88
2022-11-29T03:08:49.566Z,9.90
2022-11-29T03:11:15.909Z,9.93
2022-11-29T03:13:42.314Z,9.93
2022-11-29T03:16:08.707Z,9.92
2022-11-29T03:18:35.104Z,9.92
2022-11-29T03:21:01.469Z,9.91
2022-11-29T03:23:35.165Z,9.89
2022-11-29T03:26:01.511Z,9.89
2022-11-29T03:28:27.920Z,9.85
2022-11-29T03:30:54.356Z,9.86
2022-11-29T03:33:20.751Z,9.84
2022-11-29T03:35:47.223Z,9.85
2022-11-29T03:38:13.617Z,9.83
2022-11-29T03:40:39.998Z,9.83
2022-11-29T03:43:06.377Z,9.81
2022-11-29T03:45:32.757Z,9.80
2022-11-29T03:48:00.178Z,9.82
2022-11-29T03:50:26.570Z,9.81
2022-11-29T03:52:53.105Z,9.79
2022-11-29T03:55:19.493Z,9.75
2022-11-29T03:57:45.853Z,9.75
2022-11-29T04:00:15.253Z,9.77
2022-11-29T04:02:41.669Z,9.76
2022-11-29T04:05:08.090Z,9.76
2022-11-29T04:07:34.494Z,9.70
2022-11-29T04:10:00.876Z,9.70
2022-11-29T04:12:27.259Z,9.71
2022-11-29T04:14:55.611Z,9.67
2022-11-29T04:17:21.999Z,9.63
2022-11-29T04:19:48.325Z,9.65
2022-11-29T04:22:14.686Z,9.68
2022-11-29T04:24:41.012Z,9.67
2022-11-29T04:27:07.390Z,9.66
2022-11-29T04:29:33.731Z,9.66
2022-11-29T04:32:00.062Z,9.69
2022-11-29T04:34:26.549Z,9.73
2022-11-29T04:36:52.941Z,9.73
2022-11-29T04:39:19.286Z,9.68
2022-11-29T04:41:45.653Z,9.64
2022-11-29T04:44:11.960Z,9.70
2022-11-29T04:46:38.487Z,9.75
2022-11-29T04:49:04.891Z,9.76
2022-11-29T04:51:31.268Z,9.64
2022-11-29T04:53:57.683Z,9.63
2022-11-29T04:56:24.032Z,9.68
2022-11-29T04:58:50.379Z,9.67
2022-11-29T05:01:16.746Z,9.71
2022-11-29T05:03:45.721Z,9.76
2022-11-29T05:06:13.423Z,9.76
2022-11-29T05:08:39.775Z,9.75
2022-11-29T05:11:06.109Z,9.79
2022-11-29T05:13:32.476Z,9.74
2022-11-29T05:15:58.934Z,9.77
2022-11-29T05:18:25.446Z,9.79
2022-11-29T05:20:52.026Z,9.78
2022-11-29T05:23:18.448Z,9.78
2022-11-29T05:25:48.034Z,9.77
2022-11-29T05:28:16.060Z,9.78
2022-11-29T05:30:42.433Z,9.78
2022-11-29T05:33:08.787Z,9.77
2022-11-29T05:35:35.884Z,9.80
2022-11-29T05:38:02.376Z,9.79
2022-11-29T05:40:30.910Z,9.81
2022-11-29T05:42:58.179Z,9.78
2022-11-29T05:45:24.837Z,9.78
2022-11-29T05:47:51.312Z,9.78
2022-11-29T05:50:17.710Z,9.79
2022-11-29T05:52:44.152Z,9.80
2022-11-29T05:55:10.549Z,9.80
2022-11-29T05:57:36.942Z,9.81
2022-11-29T06:00:05.515Z,9.73
2022-11-29T06:02:31.934Z,9.75
2022-11-29T06:04:58.428Z,9.80
2022-11-29T06:07:24.874Z,9.83
2022-11-29T06:09:51.329Z,9.85
2022-11-29T06:12:25.043Z,9.84
2022-11-29T06:14:53.952Z,9.83
2022-11-29T06:17:20.417Z,9.85
2022-11-29T06:19:48.115Z,9.84
2022-11-29T06:25:06.179Z,9.86
2022-11-29T06:27:35.434Z,9.84
2022-11-29T06:30:01.814Z,9.87
2022-11-29T06:32:31.428Z,9.86
2022-11-29T06:35:13.659Z,9.82
2022-11-29T06:37:40.061Z,9.83
2022-11-29T06:40:06.391Z,9.81
2022-11-29T06:42:32.803Z,9.81
2022-11-29T06:45:00.984Z,9.85
2022-11-29T06:47:27.375Z,9.85
2022-11-29T06:49:53.787Z,9.84
2022-11-29T06:52:20.178Z,9.87
2022-11-29T06:54:46.971Z,9.87
2022-11-29T06:57:21.544Z,9.84
2022-11-29T06:59:47.970Z,9.84
2022-11-29T07:02:14.522Z,9.87
2022-11-29T07:04:45.697Z,9.88
2022-11-29T07:07:12.619Z,9.90
2022-11-29T07:09:39.007Z,9.91
2022-11-29T07:12:05.401Z,9.94
2022-11-29T07:14:31.968Z,9.97
2022-11-29T07:16:58.316Z,10.00
2022-11-29T07:19:25.756Z,10.01
2022-11-29T07:21:52.086Z,10.00
2022-11-29T07:24:18.526Z,10.00
2022-11-29T07:26:44.863Z,10.01
2022-11-29T07:29:11.276Z,10.03
2022-11-29T07:31:37.864Z,10.08
2022-11-29T07:34:04.359Z,10.07
2022-11-29T07:36:30.691Z,10.09
2022-11-29T07:38:58.050Z,10.10
2022-11-29T07:44:23.887Z,10.19
2022-11-29T07:46:50.368Z,10.17
2022-11-29T07:49:16.851Z,10.18
2022-11-29T07:51:43.307Z,10.24
2022-11-29T07:54:09.724Z,10.28
2022-11-29T07:56:39.831Z,10.27
2022-11-29T07:59:06.535Z,10.32
2022-11-29T08:01:34.876Z,10.33
2022-11-29T08:04:01.282Z,10.33
2022-11-29T08:06:27.696Z,10.35
2022-11-29T08:08:54.146Z,10.36
2022-11-29T08:11:20.482Z,10.35
2022-11-29T08:13:46.901Z,10.37
2022-11-29T08:16:13.387Z,10.37
2022-11-29T08:18:39.826Z,10.38
2022-11-29T08:21:06.259Z,10.37
2022-11-29T08:23:32.626Z,10.40
2022-11-29T08:25:59.081Z,10.39
2022-11-29T08:28:25.488Z,10.41
2022-11-29T08:30:51.895Z,10.44
2022-11-29T08:33:18.387Z,10.45
2022-11-29T08:35:44.895Z,10.44
2022-11-29T08:38:11.251Z,10.47
2022-11-29T08:40:37.656Z,10.47
2022-11-29T08:43:04.107Z,10.50
2022-11-29T08:45:30.569Z,10.54
2022-11-29T08:47:56.952Z,10.56
2022-11-29T08:50:23.567Z,10.56
2022-11-29T08:52:50.000Z,10.61
2022-11-29T08:55:16.491Z,10.61
2022-11-29T08:57:42.901Z,10.63
2022-11-29T09:00:09.326Z,10.64
2022-11-29T09:02:35.760Z,10.41
2022-11-29T09:05:02.124Z,10.44
2022-11-29T09:07:28.668Z,10.26
2022-11-29T09:09:55.097Z,10.27
2022-11-29T09:12:21.424Z,10.22
2022-11-29T09:14:47.864Z,10.33
2022-11-29T09:17:14.240Z,10.27
2022-11-29T09:19:40.603Z,10.18
2022-11-29T09:22:07.037Z,9.86
2022-11-29T09:24:33.456Z,10.00
2022-11-29T09:26:59.880Z,9.78
2022-11-29T09:29:26.326Z,9.99
2022-11-29T09:31:52.764Z,9.97
2022-11-29T09:34:19.125Z,9.93
2022-11-29T09:36:45.574Z,9.91
2022-11-29T09:39:15.916Z,10.01
2022-11-29T09:41:47.020Z,10.09
2022-11-29T09:44:15.067Z,9.82
2022-11-29T09:46:41.561Z,9.96
2022-11-29T09:49:07.973Z,10.18
2022-11-29T09:51:34.609Z,10.16
2022-11-29T09:54:02.390Z,10.23
2022-11-29T09:56:39.152Z,10.22
2022-11-29T09:59:05.476Z,10.26
2022-11-29T10:01:31.872Z,10.21
2022-11-29T10:03:58.271Z,10.21
2022-11-29T10:09:04.973Z,10.43
2022-11-29T10:11:31.385Z,10.49
2022-11-29T10:13:57.739Z,10.39
2022-11-29T10:16:24.193Z,10.47
2022-11-29T10:18:50.547Z,10.42
2022-11-29T10:23:57.299Z,10.22
2022-11-29T10:26:24.669Z,10.25
2022-11-29T10:28:51.173Z,10.16
2022-11-29T10:31:17.760Z,10.16
2022-11-29T10:33:44.208Z,10.29
2022-11-29T10:36:10.689Z,10.22
2022-11-29T10:38:37.180Z,10.18
2022-11-29T10:41:03.513Z,9.99
2022-11-29T10:43:30.548Z,9.89
2022-11-29T10:45:57.603Z,9.93
2022-11-29T10:48:24.075Z,10.08
2022-11-29T10:50:50.557Z,10.18
2022-11-29T10:53:18.306Z,10.04
2022-11-29T10:55:44.670Z,10.04
2022-11-29T10:58:11.004Z,9.85
2022-11-29T11:00:37.399Z,9.80
2022-11-29T11:03:03.787Z,9.79
2022-11-29T11:05:34.779Z,9.71
2022-11-29T11:08:01.248Z,9.69
2022-11-29T11:10:27.708Z,9.73
2022-11-29T11:12:54.113Z,9.68
2022-11-29T11:15:21.573Z,9.75
2022-11-29T11:17:47.994Z,9.66
2022-11-29T11:20:17.517Z,9.53
2022-11-29T11:22:43.909Z,9.66
2022-11-29T11:25:10.287Z,9.76
2022-11-29T11:27:36.704Z,9.75
2022-11-29T11:30:03.081Z,9.68
2022-11-29T11:32:29.774Z,9.65
2022-11-29T11:35:18.295Z,9.53
2022-11-29T11:38:00.796Z,9.53
2022-11-29T11:43:07.735Z,9.64
2022-11-29T11:45:34.275Z,9.56
2022-11-29T11:48:00.926Z,9.66
2022-11-29T11:50:27.413Z,9.80
2022-11-29T11:52:53.811Z,9.71
2022-11-29T11:55:28.523Z,9.76
2022-11-29T11:57:54.931Z,9.80
2022-11-29T12:00:40.585Z,9.84
2022-11-29T12:03:07.900Z,9.81
2022-11-29T12:05:34.371Z,9.95
2022-11-29T12:08:07.800Z,9.98
2022-11-29T12:10:34.725Z,10.03
2022-11-29T12:13:01.056Z,10.00
2022-11-29T12:15:27.467Z,10.19
2022-11-29T12:17:53.856Z,10.16
2022-11-29T12:20:20.417Z,10.21
2022-11-29T12:22:49.480Z,10.22
2022-11-29T12:25:17.029Z,10.17
2022-11-29T12:27:43.539Z,10.30
2022-11-29T12:30:10.051Z,10.24
2022-11-29T12:32:37.544Z,10.17
2022-11-29T12:35:03.993Z,10.20
2022-11-29T12:37:30.531Z,10.11
2022-11-29T12:39:58.318Z,10.20
2022-11-29T12:42:24.876Z,10.20
2022-11-29T12:44:51.325Z,10.27
2022-11-29T12:50:07.180Z,10.22
2022-11-29T12:52:33.584Z,10.34
2022-11-29T12:54:59.979Z,10.42
2022-11-29T12:57:26.417Z,10.48
2022-11-29T12:59:52.867Z,10.62
2022-11-29T13:02:26.700Z,10.80
2022-11-29T13:04:59.406Z,10.86
2022-11-29T13:07:26.382Z,10.85
2022-11-29T13:09:52.807Z,10.88
2022-11-29T13:12:19.203Z,10.97
2022-11-29T13:14:45.597Z,10.96
2022-11-29T13:17:12.033Z,10.97
2022-11-29T13:19:38.489Z,10.78
2022-11-29T13:22:04.895Z,10.81
2022-11-29T13:24:31.594Z,10.93
2022-11-29T13:26:58.118Z,10.97
2022-11-29T13:29:27.532Z,10.90
2022-11-29T13:31:54.087Z,10.94
2022-11-29T13:34:20.438Z,10.91
2022-11-29T13:36:47.816Z,10.93
2022-11-29T13:39:14.283Z,10.92
2022-11-29T13:41:40.685Z,10.93
2022-11-29T13:44:07.045Z,10.92
2022-11-29T13:46:33.430Z,10.89
2022-11-29T13:48:59.825Z,10.89
2022-11-29T13:51:26.245Z,10.78
2022-11-29T13:53:52.588Z,10.69
2022-11-29T13:56:18.935Z,10.74
2022-11-29T13:58:51.995Z,10.75
2022-11-29T14:01:20.617Z,10.72
2022-11-29T14:03:47.017Z,10.70
2022-11-29T14:06:15.573Z,10.72
2022-11-29T14:09:16.656Z,10.76
2022-11-29T14:11:28.347Z,10.80
2022-11-29T14:13:54.931Z,10.79
2022-11-29T14:16:26.386Z,10.79
2022-11-29T14:18:52.814Z,10.83
2022-11-29T14:21:19.163Z,10.88
2022-11-29T14:23:45.498Z,10.86
2022-11-29T14:26:12.618Z,10.91
2022-11-29T14:28:39.595Z,10.91
2022-11-29T14:31:06.202Z,10.92
2022-11-29T14:36:16.432Z,10.89
2022-11-29T14:38:53.156Z,10.74
2022-11-29T14:41:19.549Z,10.80
2022-11-29T14:43:45.970Z,10.78
2022-11-29T14:46:12.546Z,10.80
2022-11-29T14:48:39.043Z,10.77
2022-11-29T14:51:05.462Z,10.74
2022-11-29T14:53:31.847Z,10.67
2022-11-29T14:55:58.325Z,10.63
2022-11-29T14:58:24.841Z,10.64
2022-11-29T15:00:51.330Z,10.65
2022-11-29T15:03:21.801Z,10.64
2022-11-29T15:05:48.235Z,10.63
2022-11-29T15:08:14.719Z,10.63
2022-11-29T15:10:41.128Z,10.65
2022-11-29T15:13:11.660Z,10.65
2022-11-29T15:15:38.069Z,10.63
2022-11-29T15:18:04.517Z,10.63
2022-11-29T15:20:30.916Z,10.60
2022-11-29T15:22:57.384Z,10.56
2022-11-29T15:25:23.818Z,10.58
2022-11-29T15:27:50.286Z,10.53
2022-11-29T15:30:16.767Z,10.53
2022-11-29T15:32:43.136Z,10.50
2022-11-29T15:35:09.559Z,10.49
2022-11-29T15:37:35.966Z,10.48
2022-11-29T15:40:02.368Z,10.49
2022-11-29T15:42:32.687Z,10.47
2022-11-29T15:44:59.299Z,10.48
2022-11-29T15:47:25.744Z,10.43
2022-11-29T15:49:52.220Z,10.45
2022-11-29T15:52:20.682Z,10.46
2022-11-29T15:54:47.552Z,10.42
2022-11-29T15:57:14.222Z,10.43
2022-11-29T15:59:40.670Z,10.44
2022-11-29T16:02:07.078Z,10.44
2022-11-29T16:04:33.521Z,10.41
2022-11-29T16:07:00.069Z,10.37
2022-11-29T16:09:26.517Z,10.36
2022-11-29T16:11:52.920Z,10.37
2022-11-29T16:14:19.433Z,10.32
2022-11-29T16:16:45.884Z,10.35
2022-11-29T16:19:12.380Z,10.36
2022-11-29T16:21:38.776Z,10.36
2022-11-29T16:24:05.215Z,10.40
2022-11-29T16:26:31.618Z,10.40
2022-11-29T16:28:58.070Z,10.40
2022-11-29T16:31:24.512Z,10.39
2022-11-29T16:33:50.972Z,10.39
2022-11-29T16:36:17.438Z,10.41
2022-11-29T16:38:43.919Z,10.40
2022-11-29T16:41:10.354Z,10.39
2022-11-29T16:43:36.772Z,10.36
2022-11-29T16:46:03.216Z,10.37
2022-11-29T16:48:29.716Z,10.37
2022-11-29T16:50:56.489Z,10.37
2022-11-29T16:53:22.958Z,10.34
2022-11-29T16:55:49.382Z,10.31
2022-11-29T16:58:15.769Z,10.30
2022-11-29T17:00:42.162Z,10.29
2022-11-29T17:03:08.545Z,10.23
2022-11-29T17:05:35.691Z,10.26
2022-11-29T17:08:04.333Z,10.23
2022-11-29T17:10:30.828Z,10.22
2022-11-29T17:12:57.280Z,10.21
2022-11-29T17:15:23.729Z,10.20
2022-11-29T17:17:50.059Z,10.19
2022-11-29T17:20:16.490Z,10.16
2022-11-29T17:22:42.856Z,10.18
2022-11-29T17:25:09.306Z,10.19
2022-11-29T17:27:35.776Z,10.17
2022-11-29T17:30:07.268Z,10.15
2022-11-29T17:32:33.636Z,10.15
2022-11-29T17:35:00.130Z,10.14
2022-11-29T17:37:26.632Z,10.11
2022-11-29T17:39:53.039Z,10.08
2022-11-29T17:42:19.500Z,10.05
2022-11-29T17:44:45.850Z,10.04
2022-11-29T17:47:12.279Z,10.03
2022-11-29T17:49:38.752Z,10.01
2022-11-29T17:52:05.161Z,10.00
2022-11-29T17:54:31.562Z,9.96
2022-11-29T17:56:57.944Z,9.94
2022-11-29T17:59:24.340Z,9.93
2022-11-29T18:01:50.887Z,9.96
2022-11-29T18:04:17.321Z,9.96
2022-11-29T18:06:43.716Z,9.93
2022-11-29T18:09:10.121Z,9.91
2022-11-29T18:11:43.240Z,9.91
2022-11-29T18:14:11.535Z,9.89
2022-11-29T18:16:38.031Z,9.88
2022-11-29T18:19:04.440Z,9.85
2022-11-29T18:21:30.770Z,9.80
2022-11-29T18:23:57.129Z,9.74
2022-11-29T18:26:23.471Z,9.65
2022-11-29T18:28:49.927Z,9.62
2022-11-29T18:31:16.358Z,9.61
2022-11-29T18:33:42.769Z,9.62
2022-11-29T18:36:09.130Z,9.65
2022-11-29T18:38:35.500Z,9.67
2022-11-29T18:41:01.893Z,9.71
2022-11-29T18:43:28.263Z,9.73
2022-11-29T18:45:54.637Z,9.75
2022-11-29T18:48:21.095Z,9.77
2022-11-29T18:50:47.458Z,9.77
2022-11-29T18:53:13.772Z,9.74
2022-11-29T18:55:40.110Z,9.72
2022-11-29T18:58:06.449Z,9.69
2022-11-29T19:00:32.795Z,9.70
2022-11-29T19:02:59.218Z,9.69
2022-11-29T19:05:25.643Z,9.66
2022-11-29T19:07:54.999Z,9.65
2022-11-29T19:10:21.398Z,9.68
2022-11-29T19:12:47.801Z,9.64
2022-11-29T19:15:14.240Z,9.59
2022-11-29T19:17:43.259Z,9.56
2022-11-29T19:20:10.112Z,9.57
2022-11-29T19:22:38.281Z,9.56
2022-11-29T19:27:49.087Z,9.55
2022-11-29T19:30:15.510Z,9.56
2022-11-29T19:32:43.980Z,9.55
2022-11-29T19:35:24.914Z,9.53
2022-11-29T19:37:53.399Z,9.44
2022-11-29T19:40:19.746Z,9.30
2022-11-29T19:42:46.110Z,9.23
2022-11-29T19:45:19.779Z,9.15
2022-11-29T19:47:46.301Z,9.14
2022-11-29T19:50:13.395Z,9.15
2022-11-29T19:52:39.780Z,9.16
2022-11-29T19:55:06.156Z,9.16
2022-11-29T19:57:32.542Z,9.15
2022-11-29T19:59:58.912Z,9.15
2022-11-29T20:02:25.450Z,9.18
2022-11-29T20:04:51.901Z,9.17
2022-11-29T20:07:18.299Z,9.18
2022-11-29T20:09:45.127Z,9.17
2022-11-29T20:12:11.726Z,9.13
2022-11-29T20:14:38.114Z,9.12
2022-11-29T20:19:30.871Z,9.09
2022-11-29T20:21:57.264Z,9.07
2022-11-29T20:24:23.594Z,9.07
2022-11-29T20:26:50.028Z,9.06
2022-11-29T20:29:19.431Z,9.06
2022-11-29T20:31:50.277Z,9.08
2022-11-29T20:34:17.272Z,9.09
2022-11-29T20:36:43.792Z,9.08
2022-11-29T20:39:10.154Z,9.08
2022-11-29T20:41:36.515Z,9.08
2022-11-29T20:44:05.637Z,9.07
2022-11-29T20:46:32.050Z,9.05
2022-11-29T20:49:06.194Z,9.04
2022-11-29T20:54:13.343Z,9.08
2022-11-29T20:56:42.801Z,9.10
2022-11-29T20:59:09.192Z,9.10
2022-11-29T21:01:35.636Z,9.06
2022-11-29T21:04:02.133Z,9.03
2022-11-29T21:06:31.247Z,8.94
2022-11-29T21:09:00.671Z,8.91
2022-11-29T21:11:27.159Z,8.88
2022-11-29T21:13:53.495Z,8.86
2022-11-29T21:16:21.461Z,8.89
2022-11-29T21:18:47.875Z,8.86
2022-11-29T21:21:15.603Z,8.84
2022-11-29T21:23:42.088Z,8.88
2022-11-29T21:26:08.474Z,8.83
2022-11-29T21:28:35.052Z,8.83
2022-11-29T21:31:01.607Z,8.81
2022-11-29T21:33:28.029Z,8.79
2022-11-29T21:35:54.463Z,8.80
2022-11-29T21:38:20.883Z,8.78
2022-11-29T21:40:47.273Z,8.79
2022-11-29T21:43:13.647Z,8.83
2022-11-29T21:45:40.057Z,8.83
2022-11-29T21:48:11.467Z,8.88
2022-11-29T21:50:37.987Z,8.88
2022-11-29T21:53:04.457Z,8.89
2022-11-29T21:55:32.324Z,8.89
2022-11-29T21:57:58.935Z,8.90
2022-11-29T22:00:25.409Z,8.89
2022-11-29T22:02:56.175Z,8.92
2022-11-29T22:05:24.817Z,8.93
2022-11-29T22:07:53.568Z,8.95
2022-11-29T22:10:22.091Z,8.92
2022-11-29T22:12:52.194Z,8.94
2022-11-29T22:15:24.134Z,8.95
2022-11-29T22:17:50.827Z,8.86
2022-11-29T22:20:17.270Z,8.90
2022-11-29T22:22:44.696Z,8.88
2022-11-29T22:25:11.083Z,8.90
2022-11-29T22:27:37.461Z,8.84
2022-11-29T22:30:05.305Z,8.90
2022-11-29T22:32:31.657Z,8.95
2022-11-29T22:34:59.786Z,8.96
2022-11-29T22:37:26.218Z,8.94
2022-11-29T22:40:00.124Z,8.94
2022-11-29T22:42:26.655Z,8.94
2022-11-29T22:44:53.016Z,8.93
2022-11-29T22:47:19.433Z,8.92
2022-11-29T22:49:45.907Z,8.93
2022-11-29T22:52:15.508Z,8.92
2022-11-29T22:54:41.881Z,8.90
2022-11-29T22:57:08.247Z,8.89
2022-11-29T22:59:34.625Z,8.86
2022-11-29T23:02:02.732Z,8.85
2022-11-29T23:04:31.739Z,8.80
2022-11-29T23:06:58.212Z,8.79
2022-11-29T23:09:24.565Z,8.74
2022-11-29T23:11:51.045Z,8.74
2022-11-29T23:14:17.514Z,8.73
2022-11-29T23:16:44.028Z,8.75
2022-11-29T23:19:10.433Z,8.71
2022-11-29T23:21:36.792Z,8.71
2022-11-29T23:24:03.216Z,8.70
2022-11-29T23:26:29.645Z,8.72
2022-11-29T23:28:56.105Z,8.70
2022-11-29T23:31:22.510Z,8.69
2022-11-29T23:33:49.051Z,8.66
2022-11-29T23:36:15.467Z,8.63
2022-11-29T23:38:41.841Z,8.69
2022-11-29T23:41:08.229Z,8.69
2022-11-29T23:43:34.626Z,8.66
2022-11-29T23:46:02.502Z,8.64
2022-11-29T23:48:28.990Z,8.69
2022-11-29T23:50:55.342Z,8.72
2022-11-29T23:53:21.772Z,8.69
2022-11-29T23:55:48.290Z,8.69
2022-11-29T23:58:14.623Z,8.68
